Flight Track Log - Related Links

Times and Time Zones

All times are in EDT time to prevent confusion due to time zone crossing. See the AWI3778 flight status page for this flight to view local times or setup timezone preferences in your user account.


Time Position Orientation Groundspeed Altitude Reporting Facility
EDT Latitude Longitude Course Direction KTS MPH feet Rate Location/Type
Fri 01:50:00 PM 44.1733 -73.2574 196° South  Level FlightAware Approximate
Fri 01:50:08 PM 44.4478 -73.3008 198° South 267 307 6,500  Level Boston Center
Fri 01:51:00 PM 44.0758 -73.2964 196° South  Level FlightAware Approximate
Fri 01:51:08 PM 44.3664 -73.3228 191° South 267 307 9,100  Level Boston Center
Fri 01:52:00 PM 43.9783 -73.3354 196° South  Level FlightAware Approximate
Fri 01:52:08 PM 44.2847 -73.3478 192° South 290 334 11,100  Level Boston Center
Fri 01:53:00 PM 43.8807 -73.3738 195° South  Level FlightAware Approximate
Fri 01:53:08 PM 44.1969 -73.3783 194° South 314 361 13,600  Level Boston Center
Fri 01:54:00 PM 43.7827 -73.4100 195° South  Level FlightAware Approximate
Fri 01:54:08 PM 44.1053 -73.4058 192° South 332 382 15,700  Level Boston Center
Fri 01:55:00 PM 43.6846 -73.4462 195° South  Level FlightAware Approximate
Fri 01:55:08 PM 44.0092 -73.4331 192° South 350 403 17,600  Level Boston Center
Fri 01:56:08 PM 43.9108 -73.4631 192° South 357 411 18,500 1,200 Climbing Boston Center
Fri 01:57:08 PM 43.8044 -73.4958 193° South 379 436 20,000 1,500 Climbing Boston Center
Fri 01:58:08 PM 43.6997 -73.5256 192° South 385 443 21,500 1,450 Climbing Boston Center
Fri 01:59:08 PM 43.5933 -73.5553 191° South 395 455 22,900 1,250 Climbing Boston Center
Fri 02:00:08 PM 43.4806 -73.5875 192° South 395 455 24,000 1,050 Climbing Boston Center
Fri 02:01:08 PM 43.3697 -73.6225 193° South 401 461 25,000 1,000 Climbing Boston Center
Fri 02:02:08 PM 43.2589 -73.6544 192° South 411 473 26,000 500 Climbing Boston Center
Fri 02:03:08 PM 43.1417 -73.6892 192° South 416 479 26,000  Level Boston Center
Fri 02:04:08 PM 43.0247 -73.7239 192° South 421 484 26,000  Level Boston Center
Fri 02:05:08 PM 42.9347 -73.7503 192° South 421 484 26,000  Level Boston Center
Fri 02:06:08 PM 42.7989 -73.7897 192° South 421 484 26,000  Level Boston Center
Fri 02:07:08 PM 42.7122 -73.8783 217° Southwest 400 460 26,000  Level Boston Center
Fri 02:08:08 PM 42.6522 -74.0039 237° Southwest 381 438 26,000  Level Boston Center
Fri 02:10:08 PM 42.5383 -74.2378 237° Southwest 410 472 26,000  Level Boston Center
Fri 02:11:08 PM 42.4650 -74.3906 237° Southwest 410 472 26,000  Level Boston Center
Fri 02:12:08 PM 42.4003 -74.5150 235° Southwest 410 472 26,000 -400 Level Boston Center
Fri 02:13:08 PM 42.3372 -74.6422 236° Southwest 410 472 25,200 -1,200 Descending Boston Center
Fri 02:14:08 PM 42.2700 -74.7744 236° Southwest 415 478 23,600 -1,456 Descending Boston Center
Fri 02:15:57 PM 42.1569 -74.9783 233° Southwest 408 470 21,100 -1,412 Descending New York Center
Fri 02:16:58 PM 42.0625 -75.0533 211° Southwest 394 453 19,600 -1,033 Descending New York Center
Fri 02:17:59 PM 41.9683 -75.1308 211° Southwest 406 467 19,000 -353 Descending New York Center
Fri 02:18:57 PM 41.8758 -75.2083 212° Southwest 401 461 18,900 -864 Descending New York Center
Fri 02:19:57 PM 41.7769 -75.2881 211° Southwest 392 451 17,300 -1,983 Descending New York Center
Fri 02:20:58 PM 41.6867 -75.3622 212° Southwest 392 451 14,900 -1,918 Descending New York Center
Fri 02:21:59 PM 41.6008 -75.4314 211° Southwest 380 437 13,400 -1,438 Descending New York Center
Fri 02:22:59 PM 41.5256 -75.4925 211° Southwest 365 420 12,000 -712 Descending New York Center
Fri 02:23:57 PM 41.4353 -75.5636 211° Southwest 353 406 12,000  Level New York Center
Fri 02:24:58 PM 41.3600 -75.6219 210° Southwest 353 406 12,000  Level New York Center
Fri 02:25:58 PM 41.2656 -75.6869 207° Southwest 353 406 12,000  Level New York Center
Fri 02:26:59 PM 41.1717 -75.6883 181° South 336 387 12,000  Level New York Center
Fri 02:27:57 PM 41.0883 -75.6878 180° South 336 387 12,000  Level New York Center
Fri 02:28:58 PM 40.9842 -75.6886 180° South 342 394 12,000  Level New York Center
Fri 02:29:58 PM 40.8906 -75.6872 179° South 342 394 12,000  Level New York Center
Fri 02:30:57 PM 40.8053 -75.6867 180° South 347 399 12,000  Level New York Center
Fri 02:31:57 PM 40.7050 -75.6875 180° South 347 399 12,000  Level New York Center
Fri 02:32:57 PM 40.6136 -75.6836 178° South 347 399 12,000 -446 Level New York Center
Fri 02:33:58 PM 40.5475 -75.6161 142° Southeast 307 353 11,100 -934 Descending New York Center
Fri 02:34:59 PM 40.5053 -75.5314 123° Southeast 300 345 10,100 -545 Descending New York Center
Fri 02:35:59 PM 40.4525 -75.4431 128° Southeast 295 339 10,000 -718 Descending New York Center
Fri 02:36:56 PM 40.3836 -75.3947 152° Southeast 276 318 8,700 -1,373 Descending New York Center
Fri 02:37:57 PM 40.3164 -75.3550 156° South 276 318 7,300 -1,131 Descending New York Center
Fri 02:38:58 PM 40.2481 -75.3394 170° South 271 312 6,400 -645 Descending New York Center
Fri 02:39:58 PM 40.1614 -75.3744 197° South 276 318 6,000 -203 Descending New York Center
Fri 02:40:56 PM 40.0953 -75.4081 201° Southwest 288 331 6,000  Level New York Center
Fri 02:41:57 PM 40.0222 -75.4089 181° South 259 298 6,000  Level New York Center
Fri 02:42:57 PM 39.9708 -75.3917 166° South 228 262 6,000  Level New York Center
Fri 02:43:59 PM 39.9253 -75.4375 218° Southwest 193 222 6,000  Level New York Center
Fri 02:44:57 PM 39.9056 -75.5172 252° West 190 219 6,000 -504 Level New York Center
Fri 02:45:58 PM 39.8878 -75.5919 253° West 224 258 5,000 -492 Descending New York Center
Fri 02:46:59 PM 39.8522 -75.6436 228° Southwest 219 252 5,000 -504 Level New York Center
Fri 02:47:57 PM 39.8136 -75.6247 159° South 152 175 4,000 -1,065 Descending New York Center
Fri 02:48:46 PM 39.8000 -75.5667 107° East 181 208 3,100 -550 Descending Philadelphia TRACON
Fri 02:49:46 PM 39.8167 -75.5000 72° East 175 201 3,000 -238 Descending Philadelphia TRACON
Fri 02:50:52 PM 39.8333 -75.4333 72° East 180 207 2,600 -364 Descending Philadelphia TRACON

Login

Don't have an account? Register now (free) for customized features, flight alerts, and more!